Time;durP1;ratioP1;P1;durP2;ratioP2;P2;SDS_P1;SDS_P2;PMS_P1;PMS_P2;Temp;Humidity;BMP_temperature;BMP_pressure;BME280_temperature;BME280_humidity;BME280_pressure;Samples;Min_cycle;Max_cycle;Signal;HPM_P1;HPM_P2
2022/01/25 00:28:38;;;;;;;77.18;35.88;;;2.00;99.90;;;1.77;60.50;100197.97;5015412;28;20043;-86
2022/01/25 00:31:12;;;;;;;98.53;39.40;;;2.00;99.90;;;1.83;60.22;100204.44;5008172;28;20134;-86
2022/01/25 00:33:41;;;;;;;82.80;35.88;;;2.00;99.90;;;1.85;60.59;100205.09;5017090;28;20463;-86
2022/01/25 00:36:10;;;;;;;90.63;36.92;;;2.00;99.90;;;1.87;60.59;100205.75;5014308;28;20037;-86
2022/01/25 00:38:36;;;;;;;88.72;40.33;;;2.00;99.90;;;1.92;60.97;100203.34;5013835;28;20048;-86
2022/01/25 00:41:02;;;;;;;94.20;39.25;;;2.00;99.90;;;1.93;60.92;100196.97;5013250;28;20075;-86
2022/01/25 00:43:28;;;;;;;104.18;40.92;;;2.10;99.90;;;1.94;60.90;100206.69;5018320;28;20044;-86
2022/01/25 00:45:58;;;;;;;83.65;38.22;;;2.10;99.90;;;1.97;60.91;100202.81;5013989;28;20116;-86
2022/01/25 00:48:42;;;;;;;90.78;39.40;;;2.10;99.90;;;2.03;61.15;100194.84;5021923;28;20050;-86
2022/01/25 00:51:36;;;;;;;86.18;35.28;;;2.20;99.90;;;2.06;61.23;100199.00;5005028;28;20048;-86
2022/01/25 00:54:27;;;;;;;95.70;38.30;;;2.20;99.90;;;2.05;61.40;100189.31;5021291;28;20120;-86
2022/01/25 00:56:54;;;;;;;98.37;38.20;;;2.20;99.90;;;2.02;60.86;100187.03;5021426;28;20607;-86
2022/01/25 00:59:33;;;;;;;92.60;39.75;;;2.20;99.90;;;2.07;61.43;100187.31;5000195;28;20707;-86
2022/01/25 01:02:03;;;;;;;95.85;39.63;;;2.20;99.90;;;2.10;61.58;100184.25;5030660;28;20086;-86
2022/01/25 01:04:31;;;;;;;90.13;39.20;;;2.20;99.90;;;2.17;60.95;100177.16;5028540;28;20049;-86
2022/01/25 01:06:57;;;;;;;82.93;37.03;;;2.30;99.90;;;2.17;61.51;100179.81;5006198;28;20044;-86
2022/01/25 01:09:24;;;;;;;88.97;36.55;;;2.30;99.90;;;2.16;61.44;100179.00;5017514;28;20049;-86
2022/01/25 01:48:40;;;;;;;84.47;37.08;;;2.40;99.90;;;2.28;62.18;100149.91;5049905;28;20040;-87
2022/01/25 01:51:14;;;;;;;93.43;35.90;;;2.40;99.90;;;2.30;62.33;100147.03;5008950;28;20041;-87
2022/01/25 01:53:40;;;;;;;80.00;37.40;;;2.40;99.90;;;2.34;62.69;100143.81;5007131;28;20048;-87
2022/01/25 01:56:06;;;;;;;91.70;38.35;;;2.40;99.90;;;2.34;62.21;100138.44;5019210;28;20086;-87
2022/01/25 01:58:35;;;;;;;89.75;38.47;;;2.40;99.90;;;2.29;63.04;100131.97;5016005;28;20579;-87
2022/01/25 02:01:00;;;;;;;87.97;37.40;;;2.40;99.90;;;2.27;62.68;100136.72;5002063;28;20037;-87
2022/01/25 02:03:26;;;;;;;90.85;39.63;;;2.40;99.90;;;2.29;63.59;100138.19;5003014;28;20117;-87
2022/01/25 02:05:52;;;;;;;89.32;41.33;;;2.40;99.90;;;2.24;63.52;100129.03;5012595;28;20412;-87
2022/01/25 02:08:18;;;;;;;84.47;38.15;;;2.40;99.90;;;2.25;64.18;100134.22;5019907;28;20067;-87
2022/01/25 02:10:44;;;;;;;85.50;37.40;;;2.40;99.90;;;2.27;64.09;100129.50;5004839;28;20119;-87
2022/01/25 02:13:10;;;;;;;98.43;41.47;;;2.40;99.90;;;2.25;63.95;100123.50;5001506;28;20098;-86
2022/01/25 02:15:38;;;;;;;87.32;39.67;;;2.40;99.90;;;2.22;64.79;100126.56;5014271;28;20046;-86
2022/01/25 02:23:34;;;;;;;87.07;41.20;;;2.30;99.90;;;2.18;65.52;100114.53;5022603;28;20515;-86
2022/01/25 02:26:02;;;;;;;99.53;40.90;;;2.30;99.90;;;2.14;65.79;100124.00;5030727;28;20132;-86
2022/01/25 02:28:32;;;;;;;99.30;42.40;;;2.20;99.90;;;2.09;66.11;100121.88;4999696;28;20045;-86
2022/01/25 02:30:58;;;;;;;104.80;42.10;;;2.30;99.90;;;2.10;66.35;100120.00;5033682;28;20052;-86
2022/01/25 02:33:24;;;;;;;90.68;40.55;;;2.30;99.90;;;2.09;66.68;100113.00;5002710;28;20047;-86
2022/01/25 02:35:50;;;;;;;100.63;43.85;;;2.20;99.90;;;2.07;67.06;100123.06;5032858;28;20095;-86
2022/01/25 02:38:27;;;;;;;93.25;41.60;;;2.20;99.90;;;2.12;67.15;100117.97;5002194;28;20045;-86
2022/01/25 02:40:53;;;;;;;100.82;42.75;;;2.20;99.90;;;2.07;67.34;100112.34;5003484;28;20112;-86
2022/01/25 02:43:20;;;;;;;93.10;43.00;;;2.20;99.90;;;2.10;67.84;100112.81;5014874;28;20056;-86
2022/01/25 02:46:03;;;;;;;103.65;45.28;;;2.20;99.90;;;2.02;67.88;100101.38;5018317;28;20045;-86
2022/01/25 02:48:30;;;;;;;103.25;47.25;;;2.20;99.90;;;2.01;67.87;100105.06;5005520;28;20443;-86
2022/01/25 02:51:00;;;;;;;92.82;45.10;;;2.10;99.90;;;1.98;68.21;100102.75;4998714;28;20041;-86
2022/01/25 02:53:27;;;;;;;104.93;47.20;;;2.10;99.90;;;1.97;68.28;100103.78;4999259;28;20041;-86
2022/01/25 02:55:53;;;;;;;103.38;46.45;;;2.10;99.90;;;2.01;68.27;100100.56;5016583;28;20051;-86
2022/01/25 02:58:20;;;;;;;103.28;46.40;;;2.10;99.90;;;2.10;68.22;100103.94;5017102;28;20073;-86
2022/01/25 03:00:45;;;;;;;102.68;46.30;;;2.20;99.90;;;2.16;68.48;100100.50;5012222;28;20098;-87
2022/01/25 03:03:11;;;;;;;113.45;49.53;;;2.20;99.90;;;2.15;68.58;100096.19;5018454;28;20060;-87
2022/01/25 03:05:37;;;;;;;101.82;46.60;;;2.20;99.90;;;2.12;67.84;100096.56;5019273;28;20072;-87
2022/01/25 03:08:04;;;;;;;94.50;45.88;;;2.20;99.90;;;2.11;68.76;100087.72;5019520;28;20079;-87
2022/01/25 03:10:38;;;;;;;101.63;47.42;;;2.20;99.90;;;2.09;68.49;100081.72;5000975;28;20051;-86
2022/01/25 03:13:07;;;;;;;111.72;48.00;;;2.20;99.90;;;2.09;68.47;100086.25;5014927;28;20045;-87
2022/01/25 03:21:14;;;;;;;123.50;49.30;;;2.30;99.90;;;2.13;68.45;100095.53;5017542;28;20567;-87
2022/01/25 03:23:40;;;;;;;112.45;48.42;;;2.30;99.90;;;2.11;68.43;100089.53;5006104;28;20033;-86
2022/01/25 03:26:06;;;;;;;108.78;48.10;;;2.30;99.90;;;2.16;68.62;100089.81;5019021;28;20459;-86
2022/01/25 03:28:32;;;;;;;112.00;48.42;;;2.30;99.90;;;2.18;68.90;100082.44;5012118;28;20116;-86
2022/01/25 03:30:58;;;;;;;107.70;46.17;;;2.30;99.90;;;2.14;69.07;100089.19;5017122;28;20040;-86
2022/01/25 03:33:24;;;;;;;101.95;47.63;;;2.30;99.90;;;2.16;69.07;100087.13;5003109;28;20455;-86
2022/01/25 03:35:50;;;;;;;103.55;46.90;;;2.30;99.90;;;2.17;68.87;100091.47;5011926;28;20124;-87
2022/01/25 03:38:16;;;;;;;100.57;42.67;;;2.30;99.90;;;2.09;69.17;100091.59;4996618;28;20041;-87
2022/01/25 03:40:42;;;;;;;109.10;48.45;;;2.20;99.90;;;2.05;69.06;100096.47;5033859;28;20547;-87
2022/01/25 03:43:09;;;;;;;106.43;47.53;;;2.10;99.90;;;1.98;69.39;100100.91;4999351;28;20112;-87
2022/01/25 03:45:38;;;;;;;126.97;47.42;;;2.10;99.90;;;2.04;69.54;100092.16;5011376;28;20503;-87
2022/01/25 03:50:47;;;;;;;109.55;47.38;;;2.10;99.90;;;2.15;69.67;100085.47;5030983;28;20040;-87
2022/01/25 03:53:14;;;;;;;120.50;49.95;;;2.20;99.90;;;2.15;69.79;100082.81;4999182;28;20124;-87
2022/01/25 03:55:40;;;;;;;110.35;47.20;;;2.20;99.90;;;2.15;69.24;100077.44;5013497;28;20064;-87
2022/01/25 03:58:06;;;;;;;112.28;48.70;;;2.20;99.90;;;2.14;69.03;100071.28;5001878;28;20148;-87
2022/01/25 04:00:34;;;;;;;107.05;46.80;;;2.20;99.90;;;2.16;69.42;100079.94;5002025;28;20047;-87
2022/01/25 04:03:05;;;;;;;106.95;48.30;;;2.20;99.90;;;2.18;69.14;100069.88;5013490;28;20514;-87
2022/01/25 04:08:13;;;;;;;115.25;49.47;;;2.30;99.90;;;2.25;68.68;100069.13;5019482;28;20115;-86
2022/01/25 04:10:39;;;;;;;108.28;51.25;;;2.30;99.90;;;2.21;69.10;100063.31;5033127;28;20040;-86
2022/01/25 04:13:06;;;;;;;122.22;50.00;;;2.30;99.90;;;2.28;69.35;100064.22;5030360;28;20365;-86
2022/01/25 04:15:32;;;;;;;117.88;48.50;;;2.30;99.90;;;2.29;68.97;100063.22;5001285;28;20128;-86
2022/01/25 04:18:18;;;;;;;95.38;46.03;;;2.40;99.90;;;2.27;68.71;100061.75;5000525;28;20114;-86
2022/01/25 04:20:55;;;;;;;97.45;43.72;;;2.40;99.90;;;2.28;68.73;100058.84;5020216;28;20116;-86
2022/01/25 04:26:06;;;;;;;101.57;44.53;;;2.40;99.90;;;2.29;68.70;100052.50;5019748;28;20163;-86
2022/01/25 04:28:32;;;;;;;91.18;45.03;;;2.40;99.90;;;2.30;68.84;100046.13;5012901;28;20479;-86
2022/01/25 04:30:58;;;;;;;98.72;42.08;;;2.40;99.90;;;2.31;68.05;100047.75;5025734;28;20102;-86
2022/01/25 04:33:27;;;;;;;87.53;41.22;;;2.40;99.90;;;2.32;68.04;100044.09;5001042;28;20460;-86
2022/01/25 04:49:35;;;;;;;82.82;40.15;;;2.50;99.90;;;2.41;67.33;100041.28;5023854;28;20119;-86
2022/01/25 04:52:07;;;;;;;81.68;42.50;;;2.50;99.90;;;2.39;67.74;100034.28;4996293;28;20511;-85
2022/01/25 04:58:11;;;;;;;96.00;44.75;;;2.50;99.90;;;2.42;67.69;100032.22;5015906;28;20052;-85
2022/01/25 05:05:29;;;;;;;97.78;43.35;;;2.50;99.90;;;2.43;67.24;100018.66;5022447;28;20416;-85
2022/01/25 05:08:14;;;;;;;88.40;41.70;;;2.50;99.90;;;2.43;67.56;100028.53;5011156;28;20571;-85
2022/01/25 05:10:49;;;;;;;84.07;39.47;;;2.50;99.90;;;2.49;66.91;100030.44;5023267;28;20036;-85
2022/01/25 05:13:36;;;;;;;80.75;39.15;;;2.50;99.90;;;2.40;67.27;100043.13;5035520;28;20068;-86
2022/01/25 05:16:06;;;;;;;86.35;40.53;;;2.50;99.90;;;2.38;67.23;100040.63;5032291;28;20076;-85
2022/01/25 05:18:40;;;;;;;80.28;39.03;;;2.40;99.90;;;2.36;67.35;100034.63;5032653;28;20044;-85
2022/01/25 05:23:51;;;;;;;90.50;39.63;;;2.20;99.90;;;2.15;67.69;100032.78;5022252;28;20065;-85
2022/01/25 05:26:17;;;;;;;85.25;39.30;;;2.10;99.90;;;2.12;68.06;100035.81;5003077;28;20420;-85
2022/01/25 05:28:43;;;;;;;90.80;39.70;;;2.10;99.90;;;2.08;68.34;100028.34;5018123;28;20120;-85
2022/01/25 05:31:09;;;;;;;84.05;37.60;;;2.10;99.90;;;2.11;68.42;100019.94;5003813;28;20116;-86
2022/01/25 05:33:35;;;;;;;86.07;39.05;;;2.10;99.90;;;2.23;68.31;100015.75;5016838;28;20041;-85
2022/01/25 05:36:01;;;;;;;95.03;42.97;;;2.10;99.90;;;2.27;67.81;100002.84;4997192;28;20128;-85
2022/01/25 05:38:30;;;;;;;100.43;42.90;;;2.20;99.90;;;2.39;68.19;99983.41;5023669;28;20044;-83
2022/01/25 05:40:59;;;;;;;100.88;47.05;;;2.30;99.90;;;2.44;67.88;99990.00;5010170;28;20387;-82
2022/01/25 05:46:16;;;;;;;78.22;36.47;;;2.40;99.90;;;2.33;66.57;99984.16;5033026;28;20575;-82
2022/01/25 05:48:42;;;;;;;84.53;40.63;;;2.40;99.90;;;2.31;66.86;99983.50;5038851;28;20048;-82
2022/01/25 05:51:09;;;;;;;86.40;39.05;;;2.40;99.90;;;2.25;66.95;99988.81;5020725;28;20044;-82
2022/01/25 05:53:35;;;;;;;85.03;36.97;;;2.40;99.90;;;2.16;67.13;99980.91;5050186;28;20044;-82
2022/01/25 05:56:01;;;;;;;75.65;37.03;;;2.30;99.90;;;2.18;67.03;99980.69;5004065;28;20061;-82
2022/01/25 05:58:27;;;;;;;72.90;33.35;;;2.30;99.90;;;2.14;67.55;99987.47;5020396;28;20037;-82
2022/01/25 06:00:53;;;;;;;83.75;36.42;;;2.20;99.90;;;2.09;67.52;99990.72;5020085;28;20045;-82
2022/01/25 06:03:19;;;;;;;83.63;38.47;;;2.20;99.90;;;2.14;67.65;99992.81;5023019;28;20128;-82
2022/01/25 06:05:45;;;;;;;80.82;38.15;;;2.20;99.90;;;2.13;67.51;99991.16;5023889;28;20103;-82
2022/01/25 06:08:11;;;;;;;81.47;37.40;;;2.20;99.90;;;2.12;67.15;99995.69;5015324;28;20037;-82
2022/01/25 06:10:37;;;;;;;83.20;37.38;;;2.20;99.90;;;2.10;67.90;99995.03;5018676;28;20052;-82
2022/01/25 06:13:04;;;;;;;71.20;36.40;;;2.20;99.90;;;2.12;67.90;99995.69;5018179;28;20056;-82
2022/01/25 06:15:30;;;;;;;79.75;38.75;;;2.20;99.90;;;2.15;67.34;99983.75;5026155;28;20139;-82
2022/01/25 06:17:56;;;;;;;82.53;38.58;;;2.20;99.90;;;2.23;67.21;99974.78;5018822;28;20121;-82
2022/01/25 06:20:22;;;;;;;81.75;36.17;;;2.30;99.90;;;2.25;67.72;99989.63;5026131;28;20068;-81
2022/01/25 06:22:48;;;;;;;77.40;37.00;;;2.30;99.90;;;2.26;67.34;99977.88;5033817;28;20392;-82
2022/01/25 06:25:15;;;;;;;73.45;37.25;;;2.30;99.90;;;2.23;67.47;99986.31;5016620;28;20127;-82
2022/01/25 06:27:42;;;;;;;74.72;36.75;;;2.30;99.90;;;2.20;67.42;99983.19;5033380;28;20128;-82
2022/01/25 06:30:13;;;;;;;79.10;37.35;;;2.30;99.90;;;2.18;68.14;99978.03;5017803;28;20084;-82
2022/01/25 06:32:39;;;;;;;79.85;37.40;;;2.30;99.90;;;2.18;67.84;99973.50;5020943;28;20214;-82
2022/01/25 06:35:06;;;;;;;78.80;38.53;;;2.30;99.90;;;2.26;68.07;99967.19;5020503;28;20069;-82
2022/01/25 06:37:33;;;;;;;85.25;38.78;;;2.30;99.90;;;2.25;68.42;99968.22;5030550;28;20047;-81
2022/01/25 06:39:59;;;;;;;83.60;40.33;;;2.30;99.90;;;2.31;67.63;99956.72;5004529;28;20051;-82
2022/01/25 06:42:29;;;;;;;80.80;38.28;;;2.40;99.90;;;2.35;68.01;99960.69;5002638;28;20127;-82
2022/01/25 06:44:59;;;;;;;91.30;42.75;;;2.40;99.90;;;2.42;67.72;99960.75;5003935;28;20150;-82
2022/01/25 06:47:25;;;;;;;81.25;40.10;;;2.50;99.90;;;2.46;67.18;99974.59;5019822;28;20049;-82
2022/01/25 06:49:51;;;;;;;85.13;41.55;;;2.50;99.90;;;2.37;67.72;99965.88;5036417;28;20516;-82
2022/01/25 06:52:17;;;;;;;85.70;40.50;;;2.50;99.90;;;2.39;67.66;99967.34;5038277;28;20128;-82
2022/01/25 06:54:43;;;;;;;82.78;37.63;;;2.50;99.90;;;2.36;67.60;99972.22;5017980;28;20075;-82
2022/01/25 06:57:09;;;;;;;81.88;37.55;;;2.50;99.90;;;2.37;67.63;99969.38;5021503;28;20507;-82
2022/01/25 06:59:35;;;;;;;75.68;36.03;;;2.50;99.90;;;2.38;67.29;99968.34;5005074;28;20106;-82
2022/01/25 07:02:01;;;;;;;78.95;36.40;;;2.50;99.90;;;2.42;67.49;99975.97;5001875;28;20349;-82
2022/01/25 07:04:27;;;;;;;69.57;36.08;;;2.50;99.90;;;2.48;67.87;99975.22;5004577;28;20047;-82
2022/01/25 07:06:53;;;;;;;79.75;38.47;;;2.50;99.90;;;2.54;67.40;99971.78;5019322;28;20459;-82
2022/01/25 07:09:19;;;;;;;76.53;38.13;;;2.60;99.90;;;2.52;67.00;99971.13;5017572;28;20045;-82
2022/01/25 07:11:45;;;;;;;80.47;39.03;;;2.60;99.90;;;2.50;66.32;99967.84;5021114;28;20048;-82
2022/01/25 07:14:12;;;;;;;72.82;36.20;;;2.60;99.90;;;2.50;66.61;99970.50;5003867;28;20493;-81
2022/01/25 07:16:38;;;;;;;78.82;37.72;;;2.60;99.90;;;2.66;66.44;99964.88;5040299;28;20361;-82
2022/01/25 07:19:04;;;;;;;87.20;37.80;;;2.60;99.90;;;2.73;66.12;99955.03;5038024;28;20065;-82
2022/01/25 07:21:30;;;;;;;80.32;39.05;;;2.80;99.90;;;2.83;66.28;99950.16;5034749;28;20075;-82
2022/01/25 07:23:57;;;;;;;80.07;39.53;;;2.80;99.90;;;2.86;65.84;99957.00;5038670;28;20107;-82
2022/01/25 07:26:23;;;;;;;80.20;39.33;;;2.90;99.90;;;2.90;65.42;99955.59;5019745;28;20455;-82
2022/01/25 07:28:50;;;;;;;69.93;35.17;;;3.00;99.90;;;2.85;65.80;99962.53;5020852;28;20049;-82
2022/01/25 07:31:18;;;;;;;76.28;37.90;;;3.00;99.90;;;2.94;65.74;99954.16;5015637;28;20045;-82
2022/01/25 07:33:44;;;;;;;75.45;35.20;;;3.00;99.90;;;3.06;65.34;99956.31;5003275;28;20373;-82
2022/01/25 07:36:10;;;;;;;66.32;35.45;;;3.10;99.90;;;3.15;64.83;99963.16;5003871;28;20064;-82
2022/01/25 07:38:36;;;;;;;73.07;35.58;;;3.20;99.90;;;3.17;64.77;99958.44;5004217;28;20064;-82
2022/01/25 07:41:02;;;;;;;78.65;39.28;;;3.20;99.90;;;3.24;65.42;99954.78;5035908;28;20049;-82
2022/01/25 07:43:28;;;;;;;75.60;36.67;;;3.20;99.90;;;3.37;64.53;99955.88;5004637;28;20091;-82
2022/01/25 07:45:56;;;;;;;79.18;38.88;;;3.30;99.90;;;3.49;64.09;99948.91;5036167;28;20400;-82
2022/01/25 07:48:22;;;;;;;74.50;37.00;;;3.40;99.90;;;3.53;64.18;99952.03;5019555;28;20045;-81
2022/01/25 07:50:48;;;;;;;64.07;34.33;;;3.50;99.90;;;3.56;64.09;99951.63;5054880;28;20493;-82
2022/01/25 07:53:14;;;;;;;73.95;38.97;;;3.60;99.90;;;3.62;64.22;99954.34;5019277;28;20045;-82
2022/01/25 07:55:40;;;;;;;70.13;37.42;;;3.60;99.90;;;3.65;63.48;99951.25;5000524;28;20094;-82
2022/01/25 07:58:06;;;;;;;73.25;36.95;;;3.70;99.90;;;3.62;63.57;99954.34;5029293;28;20626;-82
2022/01/25 08:00:32;;;;;;;68.25;37.00;;;3.70;99.90;;;3.67;64.11;99959.13;5035781;28;20048;-82
2022/01/25 08:02:58;;;;;;;77.70;37.08;;;3.70;99.90;;;3.74;63.88;99954.59;5017157;28;20435;-82
2022/01/25 08:05:26;;;;;;;63.97;33.42;;;3.80;99.90;;;3.84;63.33;99947.00;5000538;28;20624;-82
2022/01/25 08:07:53;;;;;;;78.20;36.83;;;3.90;99.90;;;3.82;63.44;99943.69;5018316;28;20467;-82
2022/01/25 08:10:20;;;;;;;61.35;33.75;;;3.90;99.90;;;3.85;63.15;99948.66;5018735;28;20044;-82
2022/01/25 08:12:47;;;;;;;74.15;35.15;;;3.90;99.90;;;3.85;62.96;99953.19;5033588;28;20069;-82
2022/01/25 08:15:13;;;;;;;72.43;36.00;;;4.00;99.90;;;3.85;63.00;99954.00;5028483;28;20047;-82
2022/01/25 08:17:39;;;;;;;61.38;32.22;;;3.90;99.90;;;3.78;62.89;99945.09;5001002;28;20495;-82
2022/01/25 08:20:06;;;;;;;62.25;31.45;;;3.90;99.90;;;3.92;63.15;99944.13;5004268;28;20104;-82
2022/01/25 08:22:33;;;;;;;65.18;31.73;;;4.00;99.90;;;3.97;62.88;99940.84;5032612;28;20044;-82
2022/01/25 08:24:59;;;;;;;66.57;33.25;;;4.00;99.90;;;4.07;62.90;99937.75;5014252;28;20043;-82
2022/01/25 08:27:25;;;;;;;65.35;34.90;;;4.20;99.90;;;4.05;63.83;99953.25;5019744;28;20178;-82
2022/01/25 08:29:52;;;;;;;75.90;35.13;;;4.20;99.90;;;4.21;62.97;99952.03;5018408;28;20160;-82
2022/01/25 08:32:18;;;;;;;70.72;35.25;;;4.30;99.90;;;4.18;62.76;99944.41;5005408;28;20071;-82
2022/01/25 08:34:45;;;;;;;63.60;32.30;;;4.30;99.90;;;4.23;62.80;99948.13;5021329;28;20120;-82
2022/01/25 08:37:10;;;;;;;66.82;35.28;;;4.40;99.90;;;4.36;62.19;99947.31;5021258;28;20041;-82
2022/01/25 08:39:36;;;;;;;64.60;33.58;;;4.50;99.90;;;4.46;62.54;99937.00;5020865;28;20054;-81
2022/01/25 08:42:03;;;;;;;63.30;33.58;;;4.60;99.90;;;4.55;61.46;99948.34;5023438;28;20183;-82
2022/01/25 08:44:29;;;;;;;69.15;34.17;;;4.70;99.90;;;4.63;62.08;99945.47;5023279;28;20096;-82
2022/01/25 08:46:55;;;;;;;62.05;34.42;;;4.80;99.90;;;4.74;61.46;99942.16;5035316;28;20598;-81
2022/01/25 08:49:24;;;;;;;66.97;33.28;;;4.90;99.90;;;4.79;61.90;99944.22;5017988;28;20461;-80
2022/01/25 08:51:52;;;;;;;61.40;33.58;;;5.00;99.90;;;4.88;61.03;99942.97;5016795;28;20404;-82
2022/01/25 08:54:18;;;;;;;63.45;35.95;;;5.10;99.90;;;4.95;60.72;99941.09;5019437;28;20048;-82
2022/01/25 08:56:44;;;;;;;68.88;38.30;;;5.20;99.90;;;5.02;60.19;99941.09;5028004;28;20041;-82
2022/01/25 08:59:10;;;;;;;68.60;35.63;;;5.20;99.90;;;5.13;60.62;99940.44;5018522;28;20500;-81
2022/01/25 09:01:36;;;;;;;62.78;33.90;;;5.30;99.90;;;5.27;59.71;99935.88;5018433;28;20059;-82
2022/01/25 09:04:03;;;;;;;71.20;33.63;;;5.40;99.90;;;5.22;59.65;99939.19;5047826;28;20124;-82
2022/01/25 09:06:29;;;;;;;62.83;33.67;;;5.50;99.90;;;5.26;60.08;99938.75;5014783;28;20110;-82
2022/01/25 09:09:09;;;;;;;64.55;35.60;;;5.50;99.90;;;5.30;59.53;99938.13;5031417;28;20064;-82
2022/01/25 09:11:36;;;;;;;59.58;33.85;;;5.50;99.90;;;5.18;59.46;99946.03;5037233;28;20615;-82
2022/01/25 09:14:02;;;;;;;61.85;35.28;;;5.50;99.90;;;5.12;59.20;99949.56;5020463;28;20083;-82
2022/01/25 09:16:28;;;;;;;68.68;35.53;;;5.40;99.90;;;5.05;59.82;99953.28;5048314;28;20045;-81
2022/01/25 09:18:54;;;;;;;60.67;32.42;;;5.30;99.90;;;4.74;60.34;99954.78;5019586;28;20072;-81
2022/01/25 09:21:20;;;;;;;65.28;33.92;;;5.10;99.90;;;4.47;61.00;99952.06;5015879;28;20084;-81
2022/01/25 09:23:46;;;;;;;64.97;30.77;;;4.80;99.90;;;4.28;61.16;99963.63;5029953;28;20591;-81
2022/01/25 09:26:12;;;;;;;58.78;31.67;;;4.60;99.90;;;4.30;61.70;99953.47;5016248;28;20061;-81
2022/01/25 09:28:38;;;;;;;62.75;33.72;;;4.50;99.90;;;4.59;61.64;99946.91;5022215;28;20376;-81
2022/01/25 09:31:04;;;;;;;59.28;33.40;;;4.70;99.90;;;5.07;60.85;99935.91;4999315;28;20340;-81
2022/01/25 09:33:30;;;;;;;60.92;34.28;;;5.10;99.90;;;5.48;60.18;99937.47;5049492;28;20116;-81
2022/01/25 09:35:56;;;;;;;57.95;33.38;;;5.50;99.90;;;5.75;58.59;99937.34;5030026;28;20111;-81
2022/01/25 09:38:23;;;;;;;59.65;32.75;;;6.00;99.90;;;5.88;58.35;99940.81;4997175;28;20120;-81
2022/01/25 09:40:49;;;;;;;61.35;32.10;;;6.20;99.90;;;5.92;57.92;99941.19;5017795;28;20476;-81
2022/01/25 09:43:15;;;;;;;60.47;33.58;;;6.30;99.90;;;6.00;57.91;99929.38;4997034;28;20473;-81
2022/01/25 09:45:41;;;;;;;59.15;31.38;;;6.30;99.90;;;6.25;57.32;99922.16;5000255;28;20052;-81
2022/01/25 09:48:08;;;;;;;62.40;34.17;;;6.50;99.90;;;6.49;56.15;99917.88;5017244;28;20125;-81
2022/01/25 09:50:35;;;;;;;65.63;34.80;;;6.70;99.90;;;6.72;55.49;99913.75;5013885;28;20075;-81
2022/01/25 09:53:02;;;;;;;60.03;33.42;;;6.90;99.90;;;6.80;54.77;99899.97;5013104;28;20052;-81
2022/01/25 09:55:32;;;;;;;57.75;31.27;;;7.10;99.90;;;6.88;54.09;99898.84;5050081;28;20472;-81
2022/01/25 09:57:58;;;;;;;54.25;30.95;;;7.30;99.90;;;6.84;54.29;99900.34;5032602;28;20921;-81
2022/01/25 10:00:28;;;;;;;57.70;31.38;;;7.30;99.90;;;6.98;53.93;99896.47;5016103;28;20048;-81
2022/01/25 10:03:21;;;;;;;55.65;28.30;;;7.40;99.90;;;6.96;53.77;99906.66;5048050;28;20033;-81
2022/01/25 10:05:49;;;;;;;63.35;30.88;;;7.40;99.90;;;6.98;53.62;99896.47;5017996;28;20662;-81
2022/01/25 10:08:35;;;;;;;54.63;29.90;;;7.50;99.90;;;7.13;53.76;99896.94;5012741;28;20120;-81
2022/01/25 10:11:08;;;;;;;49.42;28.35;;;7.50;99.90;;;7.25;53.40;99904.28;5018227;28;20051;-81
2022/01/25 10:13:39;;;;;;;57.85;33.13;;;7.60;99.90;;;7.34;52.86;99902.94;5033411;28;20124;-81
2022/01/25 10:16:11;;;;;;;51.80;29.83;;;7.70;99.90;;;7.16;54.03;99901.06;5029440;28;20457;-81
2022/01/25 10:18:50;;;;;;;59.42;32.22;;;7.60;99.90;;;6.83;53.76;99891.44;5010600;28;20460;-81
2022/01/25 10:21:28;;;;;;;55.40;31.25;;;7.50;99.90;;;6.69;54.64;99889.88;5025729;28;20117;-81
2022/01/25 10:24:04;;;;;;;59.92;32.17;;;7.20;99.90;;;6.68;54.64;99889.06;5044406;28;20139;-81
2022/01/25 10:26:39;;;;;;;64.32;32.75;;;7.10;99.90;;;6.63;54.92;99880.81;5030487;28;20059;-81
2022/01/25 10:29:07;;;;;;;63.00;34.72;;;7.10;99.90;;;6.46;55.56;99885.13;5032446;28;20198;-81
2022/01/25 10:31:59;;;;;;;60.80;32.78;;;6.90;99.90;;;6.34;55.73;99887.72;5032005;28;20124;-81
2022/01/25 10:34:30;;;;;;;61.08;34.70;;;6.90;99.90;;;6.22;56.26;99876.00;5017285;28;20041;-81
2022/01/25 10:36:57;;;;;;;63.10;34.50;;;6.70;99.90;;;6.15;57.30;99876.03;5029218;28;20037;-81
2022/01/25 10:39:31;;;;;;;68.80;36.15;;;6.50;99.90;;;6.17;56.57;99871.25;5018816;28;20044;-81
2022/01/25 10:42:11;;;;;;;68.43;34.67;;;6.50;99.90;;;6.24;56.67;99871.22;5046319;28;20045;-80
2022/01/25 10:44:56;;;;;;;71.15;35.90;;;6.50;99.90;;;6.30;56.65;99851.47;5003696;28;20445;-81
2022/01/25 10:47:51;;;;;;;77.55;39.08;;;6.50;99.90;;;6.30;56.88;99854.16;5045211;28;20144;-81
2022/01/25 10:50:26;;;;;;;73.93;38.47;;;6.60;99.90;;;6.25;56.73;99859.38;5012664;28;20056;-81
2022/01/25 10:53:09;;;;;;;74.95;37.95;;;6.60;99.90;;;6.27;57.14;99857.28;5046334;28;20045;-81
2022/01/25 10:55:42;;;;;;;68.22;37.67;;;6.60;99.90;;;6.29;56.66;99861.41;5045061;28;20221;-81
2022/01/25 10:58:09;;;;;;;68.05;36.38;;;6.60;99.90;;;6.21;56.77;99856.31;4997011;28;20045;-80
2022/01/25 11:00:38;;;;;;;74.10;37.95;;;6.50;99.90;;;6.11;57.14;99866.75;4998240;28;20614;-81
2022/01/25 11:03:04;;;;;;;72.00;38.47;;;6.40;99.90;;;6.10;57.44;99865.06;5000279;28;20040;-80
2022/01/25 11:05:36;;;;;;;64.18;35.78;;;6.40;99.90;;;6.02;56.83;99860.78;5012249;28;20412;-80
2022/01/25 11:08:14;;;;;;;69.35;36.65;;;6.30;99.90;;;5.93;57.27;99853.16;5016500;28;20446;-80
2022/01/25 11:10:48;;;;;;;73.45;37.35;;;6.30;99.90;;;5.86;57.56;99859.41;5012398;28;20056;-80
2022/01/25 11:16:01;;;;;;;89.05;43.60;;;6.10;99.90;;;5.87;57.86;99844.91;5032313;28;20041;-81
2022/01/25 11:18:26;;;;;;;89.03;44.80;;;6.20;99.90;;;6.01;57.23;99845.69;5030267;28;20081;-81
2022/01/25 11:20:54;;;;;;;79.07;39.97;;;6.20;99.90;;;6.20;57.27;99834.97;5030248;28;20037;-80
2022/01/25 11:23:20;;;;;;;67.55;36.38;;;6.30;99.90;;;6.40;57.05;99824.84;5030208;28;20579;-80
2022/01/25 11:25:46;;;;;;;75.80;39.55;;;6.60;99.90;;;6.56;56.45;99818.03;5029136;28;20045;-81
2022/01/25 11:28:13;;;;;;;74.63;38.38;;;6.80;99.90;;;6.53;56.43;99811.22;5016270;28;20060;-80
2022/01/25 11:30:40;;;;;;;70.85;37.65;;;6.90;99.90;;;6.53;56.09;99810.41;5032522;28;20051;-81
2022/01/25 11:33:08;;;;;;;69.90;36.50;;;7.00;99.90;;;6.56;56.45;99807.25;5011353;28;20128;-80
2022/01/25 11:35:34;;;;;;;68.30;36.65;;;7.00;99.90;;;6.66;55.61;99809.44;5035112;28;20105;-80
2022/01/25 11:38:00;;;;;;;67.72;36.15;;;7.00;99.90;;;6.72;55.59;99803.19;5011009;28;20451;-80
2022/01/25 11:40:46;;;;;;;72.65;35.63;;;7.10;99.90;;;6.84;55.08;99795.16;4998355;28;20040;-80
2022/01/25 11:43:14;;;;;;;68.78;36.25;;;7.30;99.90;;;6.95;55.03;99791.72;5014780;28;20076;-80
2022/01/25 11:45:50;;;;;;;78.68;40.08;;;7.30;99.90;;;6.94;54.91;99800.84;5013697;28;20076;-80
2022/01/25 11:48:24;;;;;;;61.85;36.28;;;7.40;99.90;;;6.96;55.15;99790.66;5031182;28;20044;-81
2022/01/25 11:50:49;;;;;;;69.65;38.10;;;7.40;99.90;;;6.81;54.58;99784.81;5031340;28;20044;-81
2022/01/25 11:53:19;;;;;;;87.90;41.90;;;7.30;99.90;;;6.72;55.29;99773.53;5013572;28;20044;-81
2022/01/25 11:55:52;;;;;;;77.68;41.58;;;7.20;99.90;;;6.56;55.51;99780.31;5028887;28;20059;-81
2022/01/25 11:58:30;;;;;;;85.10;42.63;;;7.10;99.90;;;6.71;55.61;99775.38;5028767;28;20123;-80
2022/01/25 12:00:59;;;;;;;77.72;41.47;;;7.00;99.90;;;6.68;55.84;99772.31;5044462;28;20075;-81
2022/01/25 12:03:41;;;;;;;71.40;38.15;;;7.00;99.90;;;6.64;55.92;99771.94;5027424;28;20052;-80
2022/01/25 12:06:33;;;;;;;74.30;38.30;;;7.00;99.90;;;6.57;56.11;99773.88;5027647;28;20171;-80
2022/01/25 12:09:17;;;;;;;75.30;39.17;;;6.90;99.90;;;6.52;56.15;99781.81;5019761;28;20399;-80
2022/01/25 12:12:07;;;;;;;80.85;41.38;;;6.80;99.90;;;6.37;56.70;99775.97;5009156;28;20516;-80
2022/01/25 12:14:51;;;;;;;76.78;39.55;;;6.70;99.90;;;6.32;56.35;99775.81;5031907;28;20131;-80
2022/01/25 12:17:19;;;;;;;85.68;39.75;;;6.60;99.90;;;6.24;57.18;99761.56;5047225;28;20068;-80